Time;durP1;ratioP1;P1;durP2;ratioP2;P2;SDS_P1;SDS_P2;PMS_P1;PMS_P2;Temp;Humidity;BMP_temperature;BMP_pressure;BME280_temperature;BME280_humidity;BME280_pressure;Samples;Min_cycle;Max_cycle;Signal;HPM_P1;HPM_P2
2020/12/20 00:00:51;;;;;;;9.67;6.53;;;9.60;99.90;;;;;;5067784;28;20256;-66
2020/12/20 00:03:17;;;;;;;11.20;7.00;;;9.60;99.90;;;;;;5071743;28;20261;-65
2020/12/20 00:05:42;;;;;;;10.23;7.27;;;9.50;99.90;;;;;;5054747;28;20213;-65
2020/12/20 00:08:08;;;;;;;8.43;7.27;;;9.50;99.90;;;;;;5051198;28;20179;-64
2020/12/20 00:10:34;;;;;;;12.13;7.90;;;9.50;99.90;;;;;;5065311;28;20296;-65
2020/12/20 00:12:59;;;;;;;10.67;7.20;;;9.40;99.90;;;;;;5071386;28;20180;-66
2020/12/20 00:15:26;;;;;;;9.33;7.10;;;9.40;99.90;;;;;;5069695;28;20557;-65
2020/12/20 00:17:52;;;;;;;11.30;7.60;;;9.40;99.90;;;;;;5071353;28;20403;-65
2020/12/20 00:20:18;;;;;;;8.80;7.20;;;9.40;99.90;;;;;;5060024;28;20285;-66
2020/12/20 00:22:45;;;;;;;10.10;6.83;;;9.40;99.90;;;;;;5051209;28;20210;-66
2020/12/20 00:25:12;;;;;;;9.10;6.77;;;9.50;99.90;;;;;;5060091;28;20503;-66
2020/12/20 00:27:37;;;;;;;9.00;6.80;;;9.40;99.90;;;;;;5071074;28;20213;-66
2020/12/20 00:30:05;;;;;;;9.93;6.90;;;9.40;99.90;;;;;;5062948;28;20234;-65
2020/12/20 00:32:31;;;;;;;8.73;6.67;;;9.40;99.90;;;;;;5052943;28;20185;-65
2020/12/20 00:34:57;;;;;;;8.30;7.43;;;9.40;99.90;;;;;;5060515;28;20286;-64
2020/12/20 00:37:23;;;;;;;10.27;7.73;;;9.50;99.90;;;;;;5074013;28;20625;-65
2020/12/20 00:39:48;;;;;;;8.87;6.87;;;9.50;99.90;;;;;;5070626;28;20198;-66
2020/12/20 00:42:14;;;;;;;8.70;6.33;;;9.40;99.90;;;;;;5054822;28;20665;-65
2020/12/20 00:44:40;;;;;;;9.50;7.10;;;9.50;99.90;;;;;;5074110;28;20667;-66
2020/12/20 00:47:06;;;;;;;9.53;6.40;;;9.50;99.90;;;;;;5075012;28;20707;-65
2020/12/20 00:49:33;;;;;;;8.87;5.83;;;9.40;99.90;;;;;;5057121;28;20214;-65
2020/12/20 00:52:02;;;;;;;8.17;6.10;;;9.40;99.90;;;;;;5054686;28;20236;-66
2020/12/20 00:54:28;;;;;;;8.07;6.40;;;9.40;99.90;;;;;;5070936;28;20182;-65
2020/12/20 00:56:54;;;;;;;6.90;5.50;;;9.30;99.90;;;;;;5074746;28;20184;-65
2020/12/20 00:59:20;;;;;;;7.73;5.93;;;9.30;99.90;;;;;;5060116;28;20287;-65
2020/12/20 01:01:46;;;;;;;10.03;5.83;;;9.30;99.90;;;;;;5054566;28;20198;-65
2020/12/20 01:04:12;;;;;;;8.87;6.40;;;9.30;99.90;;;;;;5066667;28;20256;-65
2020/12/20 01:06:38;;;;;;;8.90;6.23;;;9.30;99.90;;;;;;5074756;28;20202;-65
2020/12/20 01:09:04;;;;;;;8.23;5.67;;;9.30;99.90;;;;;;5063309;28;20280;-66
2020/12/20 01:11:30;;;;;;;11.53;6.20;;;9.30;99.90;;;;;;5054556;28;20242;-65
2020/12/20 01:13:56;;;;;;;6.90;6.13;;;9.20;99.90;;;;;;5062632;28;20261;-64
2020/12/20 01:16:26;;;;;;;9.07;6.20;;;9.20;99.90;;;;;;5070035;28;20185;-65
2020/12/20 01:18:55;;;;;;;10.10;6.63;;;9.20;99.90;;;;;;5074330;28;20227;-63
2020/12/20 01:21:21;;;;;;;9.23;6.70;;;9.20;99.90;;;;;;5069230;28;20261;-64
2020/12/20 01:23:47;;;;;;;8.03;6.23;;;9.20;99.90;;;;;;5054327;28;20183;-64
2020/12/20 01:26:13;;;;;;;8.57;6.67;;;9.20;99.90;;;;;;5057173;28;20617;-66
2020/12/20 01:28:39;;;;;;;7.83;6.47;;;9.20;99.90;;;;;;5074220;28;20166;-65
2020/12/20 01:31:07;;;;;;;8.37;6.53;;;9.20;99.90;;;;;;5072375;28;20176;-65
2020/12/20 01:33:35;;;;;;;9.90;7.03;;;9.20;99.90;;;;;;5054177;28;20178;-65
2020/12/20 01:36:12;;;;;;;7.90;6.40;;;9.20;99.90;;;;;;5053854;28;20178;-64
2020/12/20 01:38:39;;;;;;;7.00;6.10;;;9.10;99.90;;;;;;5034117;28;20174;-66
2020/12/20 01:41:05;;;;;;;8.20;6.30;;;9.20;99.90;;;;;;5033825;28;20839;-65
2020/12/20 01:43:49;;;;;;;9.93;6.53;;;9.20;99.90;;;;;;5053983;28;20163;-69
2020/12/20 01:46:17;;;;;;;10.03;6.93;;;9.20;99.90;;;;;;5054140;28;20179;-66
2020/12/20 01:48:44;;;;;;;14.93;8.97;;;9.30;99.90;;;;;;5073877;28;20202;-65
2020/12/20 01:51:10;;;;;;;8.20;6.70;;;9.30;99.90;;;;;;5073494;28;20533;-64
2020/12/20 01:53:36;;;;;;;9.47;6.67;;;9.30;99.90;;;;;;5054365;28;20186;-65
2020/12/20 01:56:03;;;;;;;9.00;6.50;;;9.30;99.90;;;;;;5053599;28;20198;-64
2020/12/20 01:58:29;;;;;;;7.87;6.53;;;9.40;99.90;;;;;;5071025;28;20178;-66
2020/12/20 02:00:55;;;;;;;11.10;6.57;;;9.40;99.90;;;;;;5073266;28;20186;-66
2020/12/20 02:03:22;;;;;;;9.07;5.80;;;9.50;99.90;;;;;;5057517;28;20567;-65
2020/12/20 02:05:49;;;;;;;10.40;6.90;;;9.50;99.90;;;;;;5053552;28;20203;-65
2020/12/20 02:08:16;;;;;;;7.17;6.13;;;9.50;99.90;;;;;;5054391;28;20661;-66
2020/12/20 02:10:42;;;;;;;6.37;5.57;;;9.50;99.90;;;;;;5053215;28;20680;-66
2020/12/20 02:13:07;;;;;;;7.97;6.20;;;9.50;99.90;;;;;;5066010;28;20232;-66
2020/12/20 02:15:33;;;;;;;7.90;6.40;;;9.50;99.90;;;;;;5073827;28;20569;-65
2020/12/20 02:17:59;;;;;;;8.07;5.90;;;9.50;99.90;;;;;;5071382;28;20261;-65
2020/12/20 02:20:24;;;;;;;8.83;6.47;;;9.40;99.90;;;;;;5072802;28;20606;-65
2020/12/20 02:22:54;;;;;;;10.90;6.00;;;9.40;99.90;;;;;;5064093;28;20178;-64
2020/12/20 02:25:19;;;;;;;7.73;6.37;;;9.40;99.90;;;;;;5052942;28;20236;-64
2020/12/20 02:27:45;;;;;;;11.53;6.23;;;9.40;99.90;;;;;;5060399;28;20171;-65
2020/12/20 02:30:11;;;;;;;8.60;6.77;;;9.40;99.90;;;;;;5073058;28;21075;-65
2020/12/20 02:32:36;;;;;;;9.13;6.57;;;9.40;99.90;;;;;;5066988;28;20586;-65
2020/12/20 02:35:02;;;;;;;9.57;6.53;;;9.40;99.90;;;;;;5052969;28;20174;-64
2020/12/20 02:37:28;;;;;;;9.77;6.67;;;9.40;99.90;;;;;;5056837;28;20660;-66
2020/12/20 02:39:53;;;;;;;8.30;6.17;;;9.40;99.90;;;;;;5052668;28;20194;-62
2020/12/20 02:42:19;;;;;;;10.13;6.47;;;9.40;99.90;;;;;;5058850;28;20174;-66
2020/12/20 02:44:45;;;;;;;7.13;6.23;;;9.40;99.90;;;;;;5072763;28;20648;-65
2020/12/20 02:47:10;;;;;;;8.80;6.87;;;9.40;99.90;;;;;;5066883;28;20214;-66
2020/12/20 02:49:36;;;;;;;8.00;5.93;;;9.40;99.90;;;;;;5052843;28;20198;-66
2020/12/20 02:52:03;;;;;;;7.90;5.73;;;9.40;99.90;;;;;;5054934;28;20548;-66
2020/12/20 02:54:28;;;;;;;11.53;6.73;;;9.30;99.90;;;;;;5072450;28;20194;-66
2020/12/20 02:56:54;;;;;;;8.67;6.77;;;9.30;99.90;;;;;;5072083;28;20205;-65
2020/12/20 02:59:19;;;;;;;11.27;6.70;;;9.30;99.90;;;;;;5052549;28;20664;-65
2020/12/20 03:01:45;;;;;;;7.30;6.03;;;9.30;99.90;;;;;;5066425;28;20178;-66
2020/12/20 03:04:10;;;;;;;9.07;7.43;;;9.20;99.90;;;;;;5072302;28;20202;-63
2020/12/20 03:06:36;;;;;;;10.47;6.20;;;9.20;99.90;;;;;;5070656;28;20176;-66
2020/12/20 03:09:02;;;;;;;7.77;6.17;;;9.20;99.90;;;;;;5071853;28;20687;-66
2020/12/20 03:11:27;;;;;;;11.53;7.40;;;9.20;99.90;;;;;;5060434;28;20217;-65
2020/12/20 03:13:53;;;;;;;11.03;7.20;;;9.10;99.90;;;;;;5051502;28;20174;-65
2020/12/20 03:16:19;;;;;;;9.87;6.33;;;9.20;99.90;;;;;;5058889;28;20213;-65
2020/12/20 03:18:45;;;;;;;9.57;6.30;;;9.10;99.90;;;;;;5071637;28;20170;-66
2020/12/20 03:21:10;;;;;;;8.40;7.27;;;9.10;99.90;;;;;;5063912;28;20174;-65
2020/12/20 03:23:36;;;;;;;9.53;6.80;;;9.10;99.90;;;;;;5051493;28;20177;-65
2020/12/20 03:26:02;;;;;;;7.63;6.10;;;9.10;99.90;;;;;;5056120;28;20202;-65
2020/12/20 03:28:28;;;;;;;10.33;7.07;;;9.10;99.90;;;;;;5068242;28;20708;-66
2020/12/20 03:30:53;;;;;;;8.60;6.53;;;9.10;99.90;;;;;;5050832;28;20282;-65
2020/12/20 03:33:19;;;;;;;10.10;7.10;;;9.10;99.90;;;;;;5052231;28;20174;-66
2020/12/20 03:35:45;;;;;;;9.73;6.80;;;9.10;99.90;;;;;;5071206;28;20174;-65
2020/12/20 03:38:10;;;;;;;11.77;6.53;;;9.10;99.90;;;;;;5070895;28;20611;-64
2020/12/20 03:40:37;;;;;;;8.87;6.47;;;9.10;99.90;;;;;;5049515;28;20214;-65
2020/12/20 03:43:03;;;;;;;9.10;6.60;;;9.10;99.90;;;;;;5066792;28;20212;-65
2020/12/20 03:45:29;;;;;;;9.13;7.27;;;9.20;99.90;;;;;;5071039;28;20229;-66
2020/12/20 03:47:54;;;;;;;8.93;6.23;;;9.20;99.90;;;;;;5056587;28;20183;-65
2020/12/20 03:50:20;;;;;;;8.37;6.43;;;9.20;99.90;;;;;;5050721;28;20707;-64
2020/12/20 03:52:45;;;;;;;10.93;7.40;;;9.20;99.90;;;;;;5063197;28;20636;-66
2020/12/20 03:55:11;;;;;;;9.37;6.60;;;9.20;99.90;;;;;;5070892;28;20608;-65
2020/12/20 03:57:37;;;;;;;8.73;6.43;;;9.20;99.90;;;;;;5058775;28;20179;-66
2020/12/20 04:00:05;;;;;;;10.83;7.20;;;9.20;99.90;;;;;;5049351;28;20202;-64
2020/12/20 04:02:30;;;;;;;8.87;6.90;;;9.20;99.90;;;;;;5060957;28;20247;-64
2020/12/20 04:04:56;;;;;;;8.80;6.27;;;9.20;99.90;;;;;;5070642;28;20686;-66
2020/12/20 04:07:21;;;;;;;8.77;7.30;;;9.20;99.90;;;;;;5063218;28;20171;-66
2020/12/20 04:09:47;;;;;;;8.10;6.17;;;9.20;99.90;;;;;;5033737;28;607986;-65
2020/12/20 04:12:13;;;;;;;10.03;7.37;;;9.20;99.90;;;;;;5062153;28;20185;-65
2020/12/20 04:14:39;;;;;;;12.27;7.27;;;9.20;99.90;;;;;;5075743;28;20269;-66
2020/12/20 04:17:04;;;;;;;8.10;6.63;;;9.20;99.90;;;;;;5070130;28;20190;-66
2020/12/20 04:19:30;;;;;;;7.20;6.40;;;9.20;99.90;;;;;;5055671;28;20213;-66
2020/12/20 04:21:55;;;;;;;10.30;6.63;;;9.20;99.90;;;;;;5058322;28;20189;-66
2020/12/20 04:24:21;;;;;;;9.50;7.33;;;9.20;99.90;;;;;;5074148;28;20669;-66
2020/12/20 04:26:47;;;;;;;9.53;6.90;;;9.20;99.90;;;;;;5055419;28;20178;-64
2020/12/20 04:29:12;;;;;;;9.80;6.70;;;9.20;99.90;;;;;;5055384;28;20206;-65
2020/12/20 04:31:38;;;;;;;9.27;7.13;;;9.20;99.90;;;;;;5074317;28;20214;-65
2020/12/20 04:34:04;;;;;;;11.03;6.77;;;9.20;99.90;;;;;;5074473;28;20651;-65
2020/12/20 04:36:30;;;;;;;9.80;6.30;;;9.20;99.90;;;;;;5057405;28;20262;-65
2020/12/20 04:38:56;;;;;;;10.60;7.30;;;9.20;99.90;;;;;;5054992;28;20190;-64
2020/12/20 04:41:23;;;;;;;11.50;7.43;;;9.20;99.90;;;;;;5070405;28;20522;-66
2020/12/20 04:43:50;;;;;;;9.37;6.73;;;9.20;99.90;;;;;;5075112;28;20283;-66
2020/12/20 04:46:19;;;;;;;14.00;7.73;;;9.20;99.90;;;;;;5066837;28;20232;-65
2020/12/20 04:48:46;;;;;;;10.20;7.50;;;9.10;99.90;;;;;;5074688;28;20170;-66
2020/12/20 04:51:13;;;;;;;14.00;7.50;;;9.10;99.90;;;;;;5061025;28;20186;-65
2020/12/20 04:53:39;;;;;;;9.00;7.40;;;9.10;99.90;;;;;;5065756;28;20202;-66
2020/12/20 04:56:07;;;;;;;9.03;7.60;;;9.10;99.90;;;;;;5074975;28;20217;-65
2020/12/20 04:58:34;;;;;;;9.83;7.43;;;9.10;99.90;;;;;;5064632;28;20183;-65
2020/12/20 05:00:59;;;;;;;9.53;7.00;;;9.10;99.90;;;;;;5054384;28;20185;-65
2020/12/20 05:03:26;;;;;;;15.00;7.40;;;9.00;99.90;;;;;;5062586;28;20186;-66
2020/12/20 05:05:52;;;;;;;14.47;7.70;;;9.10;99.90;;;;;;5074505;28;20706;-65
2020/12/20 05:08:21;;;;;;;10.47;7.97;;;9.10;99.90;;;;;;5071497;28;20366;-65
2020/12/20 05:10:47;;;;;;;11.63;7.47;;;9.10;99.90;;;;;;5077575;22;20246;-65
2020/12/20 05:13:12;;;;;;;12.23;6.53;;;9.10;99.90;;;;;;5059378;28;20193;-64
2020/12/20 05:15:38;;;;;;;8.93;6.53;;;9.00;99.90;;;;;;5074586;28;20668;-64
2020/12/20 05:18:09;;;;;;;10.90;8.10;;;9.00;99.90;;;;;;5070196;28;20662;-65
2020/12/20 05:20:38;;;;;;;9.53;7.37;;;9.00;99.90;;;;;;5053262;28;20718;-65
2020/12/20 05:23:05;;;;;;;13.50;7.30;;;9.00;99.90;;;;;;5053936;28;20175;-65
2020/12/20 05:25:32;;;;;;;8.17;6.57;;;9.00;99.90;;;;;;5053727;28;20213;-65
2020/12/20 05:28:05;;;;;;;8.10;6.87;;;9.00;99.90;;;;;;5053871;28;20159;-65
2020/12/20 05:30:31;;;;;;;10.10;7.30;;;9.00;99.90;;;;;;5053237;28;20553;-65
2020/12/20 05:32:56;;;;;;;11.30;7.90;;;9.00;99.90;;;;;;5053719;28;20178;-65
2020/12/20 05:35:22;;;;;;;8.30;6.63;;;9.00;99.90;;;;;;5053828;28;20170;-64
2020/12/20 05:37:48;;;;;;;11.60;8.30;;;9.00;99.90;;;;;;5052706;28;20729;-64
2020/12/20 05:40:37;;;;;;;8.40;6.87;;;9.00;99.90;;;;;;5052968;28;20199;-64
2020/12/20 05:43:05;;;;;;;8.63;6.90;;;9.10;99.90;;;;;;5053495;28;20206;-65
2020/12/20 05:45:34;;;;;;;11.43;7.30;;;9.00;99.90;;;;;;5053211;28;20202;-65
2020/12/20 05:48:20;;;;;;;9.70;7.00;;;9.00;99.90;;;;;;5054264;28;20536;-65
2020/12/20 05:50:50;;;;;;;9.90;7.83;;;9.00;99.90;;;;;;5052799;28;20201;-65
2020/12/20 05:53:20;;;;;;;11.77;7.53;;;9.00;99.90;;;;;;5053458;28;20179;-66
2020/12/20 05:55:46;;;;;;;9.93;7.87;;;9.00;99.90;;;;;;5053203;28;20190;-64
2020/12/20 05:58:14;;;;;;;11.17;8.13;;;9.00;99.90;;;;;;5053282;28;20178;-65
2020/12/20 06:00:42;;;;;;;11.77;8.03;;;9.00;99.90;;;;;;5052661;28;20221;-65
2020/12/20 06:03:08;;;;;;;12.27;8.00;;;9.00;99.90;;;;;;5053399;28;20198;-64
2020/12/20 06:05:37;;;;;;;11.53;8.23;;;9.00;99.90;;;;;;5052914;28;20568;-65
2020/12/20 06:08:05;;;;;;;9.77;7.23;;;9.00;99.90;;;;;;5053218;28;20178;-64
2020/12/20 06:10:37;;;;;;;10.40;8.33;;;9.00;99.90;;;;;;5052374;28;20209;-64
2020/12/20 06:13:05;;;;;;;12.40;7.33;;;9.00;99.90;;;;;;5053025;28;20244;-65
2020/12/20 06:15:33;;;;;;;10.83;7.70;;;9.00;99.90;;;;;;5052944;28;20189;-65
2020/12/20 06:18:04;;;;;;;9.03;7.37;;;9.00;99.90;;;;;;5053011;28;20171;-64
2020/12/20 06:20:32;;;;;;;9.53;7.83;;;9.00;99.90;;;;;;5052376;28;20198;-65
2020/12/20 06:22:58;;;;;;;10.23;8.13;;;9.00;99.90;;;;;;5052899;28;20163;-64
2020/12/20 06:25:25;;;;;;;11.77;7.13;;;9.10;99.90;;;;;;5052648;28;20256;-65
2020/12/20 06:27:51;;;;;;;11.00;7.50;;;9.00;99.90;;;;;;5053158;28;20254;-64
2020/12/20 06:30:19;;;;;;;12.23;7.67;;;8.90;99.90;;;;;;5051664;28;20282;-64
2020/12/20 06:33:06;;;;;;;12.53;8.50;;;8.90;99.90;;;;;;5052509;28;20181;-65
2020/12/20 06:35:33;;;;;;;9.13;7.37;;;8.90;99.90;;;;;;5052079;28;20230;-64
2020/12/20 06:37:59;;;;;;;9.03;7.60;;;8.90;99.90;;;;;;5051269;28;20171;-64
2020/12/20 06:40:30;;;;;;;9.17;7.33;;;8.70;99.90;;;;;;5052037;28;20272;-64
2020/12/20 06:42:59;;;;;;;9.20;6.93;;;8.80;99.90;;;;;;5052363;28;20182;-64
2020/12/20 06:45:27;;;;;;;13.10;8.00;;;8.70;99.90;;;;;;5052655;28;20202;-65
2020/12/20 06:48:00;;;;;;;9.63;7.93;;;8.70;99.90;;;;;;5052085;28;20175;-64
2020/12/20 06:50:43;;;;;;;10.47;8.30;;;8.70;99.90;;;;;;5052006;28;20185;-65
2020/12/20 06:53:14;;;;;;;14.37;8.87;;;8.70;99.90;;;;;;5052064;28;20182;-65
2020/12/20 06:55:40;;;;;;;13.23;9.37;;;8.70;99.90;;;;;;5052338;28;20304;-64
2020/12/20 06:58:17;;;;;;;11.33;7.60;;;8.70;99.90;;;;;;5052174;28;20174;-64
2020/12/20 07:00:50;;;;;;;12.63;8.27;;;8.70;99.90;;;;;;5051777;28;20194;-64
2020/12/20 07:03:25;;;;;;;13.07;9.27;;;8.60;99.90;;;;;;5051986;28;20221;-65
2020/12/20 07:05:54;;;;;;;10.80;9.27;;;8.60;99.90;;;;;;5052038;28;20200;-65
2020/12/20 07:08:24;;;;;;;12.07;8.77;;;8.50;99.90;;;;;;5050748;28;20206;-66
2020/12/20 07:10:52;;;;;;;11.20;8.03;;;8.50;99.90;;;;;;5049667;28;20198;-65
2020/12/20 07:13:38;;;;;;;11.13;8.57;;;8.40;99.90;;;;;;5050617;28;20577;-65
2020/12/20 07:16:06;;;;;;;10.70;8.80;;;8.40;99.90;;;;;;5051548;28;20186;-65
2020/12/20 07:18:58;;;;;;;11.73;9.27;;;8.40;99.90;;;;;;5052011;28;20167;-65
2020/12/20 07:21:23;;;;;;;15.00;9.70;;;8.40;99.90;;;;;;5051278;28;20195;-65
2020/12/20 07:23:54;;;;;;;11.73;9.30;;;8.30;99.90;;;;;;5051616;28;20174;-64
2020/12/20 07:26:20;;;;;;;16.00;9.47;;;8.30;99.90;;;;;;5051763;28;20491;-64
2020/12/20 07:28:46;;;;;;;10.07;8.73;;;8.20;99.90;;;;;;5051458;28;20190;-66
2020/12/20 07:31:16;;;;;;;16.37;10.80;;;8.20;99.90;;;;;;5050955;28;20289;-65
2020/12/20 07:33:42;;;;;;;15.97;9.87;;;8.20;99.90;;;;;;5051651;28;20202;-64
2020/12/20 07:36:08;;;;;;;14.40;9.90;;;8.20;99.90;;;;;;5051142;28;20178;-65
2020/12/20 07:38:34;;;;;;;12.73;10.13;;;8.20;99.90;;;;;;5051037;28;20266;-64
2020/12/20 07:41:00;;;;;;;11.73;9.50;;;8.20;99.90;;;;;;5050387;28;20568;-65
2020/12/20 07:43:25;;;;;;;19.50;10.53;;;8.20;99.90;;;;;;5050939;28;20690;-64
2020/12/20 07:46:01;;;;;;;15.07;10.53;;;8.20;99.90;;;;;;5050841;28;20202;-65
2020/12/20 07:48:27;;;;;;;18.47;10.73;;;8.20;99.90;;;;;;5051482;28;20170;-65
2020/12/20 07:51:05;;;;;;;13.70;10.27;;;8.20;99.90;;;;;;5050514;28;20202;-65
2020/12/20 07:53:31;;;;;;;13.67;11.07;;;8.10;99.90;;;;;;5051459;28;20669;-65
2020/12/20 07:55:57;;;;;;;14.13;10.87;;;8.20;99.90;;;;;;5051021;28;20198;-65
2020/12/20 07:58:24;;;;;;;12.20;9.67;;;8.20;99.90;;;;;;5051285;28;20175;-65
2020/12/20 08:01:02;;;;;;;16.87;10.87;;;8.20;99.90;;;;;;5050311;28;20210;-65
2020/12/20 08:03:28;;;;;;;14.77;10.30;;;8.20;99.90;;;;;;5051360;28;20170;-66
2020/12/20 08:06:05;;;;;;;16.70;11.43;;;8.20;99.90;;;;;;5055910;28;20266;-64
2020/12/20 08:08:31;;;;;;;15.17;11.73;;;8.20;99.90;;;;;;5054784;28;20623;-65
2020/12/20 08:11:01;;;;;;;15.43;12.40;;;8.30;99.90;;;;;;5052364;28;20202;-65
2020/12/20 08:13:26;;;;;;;17.43;12.10;;;8.20;99.90;;;;;;5051030;28;20541;-65
2020/12/20 08:15:52;;;;;;;14.53;11.17;;;8.30;99.90;;;;;;5051044;28;20175;-65
2020/12/20 08:18:18;;;;;;;12.77;10.30;;;8.30;99.90;;;;;;5051607;28;20274;-65
2020/12/20 08:20:43;;;;;;;18.40;11.40;;;8.30;99.90;;;;;;5050603;28;20213;-65
2020/12/20 08:23:11;;;;;;;14.63;11.27;;;8.40;99.90;;;;;;5050676;28;20175;-64
2020/12/20 08:25:37;;;;;;;15.13;10.80;;;8.40;99.90;;;;;;5051169;28;20199;-65
2020/12/20 08:28:03;;;;;;;15.47;11.57;;;8.50;99.90;;;;;;5050650;28;20171;-64
2020/12/20 08:30:28;;;;;;;15.13;11.63;;;8.50;99.90;;;;;;5050597;28;20320;-65
2020/12/20 08:32:54;;;;;;;14.93;10.80;;;8.50;99.90;;;;;;5050376;28;20647;-65
2020/12/20 08:35:22;;;;;;;12.60;10.07;;;8.50;99.90;;;;;;5050947;28;20537;-65
2020/12/20 08:37:53;;;;;;;13.33;10.77;;;8.60;99.90;;;;;;5049763;28;20238;-64
2020/12/20 08:40:20;;;;;;;18.23;11.30;;;8.60;99.90;;;;;;5050592;28;20285;-65
2020/12/20 08:42:47;;;;;;;14.87;11.27;;;8.60;99.90;;;;;;5050361;28;20182;-64
2020/12/20 08:45:14;;;;;;;14.83;11.00;;;8.70;99.90;;;;;;5050924;28;20256;-65
2020/12/20 08:47:40;;;;;;;15.23;10.10;;;8.70;99.90;;;;;;5050869;28;20237;-64
2020/12/20 08:50:06;;;;;;;15.03;11.33;;;8.70;99.90;;;;;;5050291;28;20215;-65
2020/12/20 08:52:33;;;;;;;12.90;9.17;;;8.80;99.90;;;;;;5050787;28;20182;-65
2020/12/20 08:55:00;;;;;;;16.03;10.53;;;8.90;99.90;;;;;;5054303;28;20253;-65
2020/12/20 08:57:27;;;;;;;16.47;11.17;;;8.90;99.90;;;;;;5054239;28;20167;-65
2020/12/20 08:59:52;;;;;;;14.27;10.43;;;8.90;99.90;;;;;;5054145;28;20199;-65
2020/12/20 09:02:23;;;;;;;14.40;10.93;;;9.00;99.90;;;;;;5054177;28;20190;-65
2020/12/20 09:05:06;;;;;;;16.27;10.90;;;9.10;99.90;;;;;;5054074;28;20197;-65
2020/12/20 09:07:39;;;;;;;14.00;10.47;;;9.10;99.90;;;;;;5034749;28;20510;-65
2020/12/20 09:10:09;;;;;;;17.33;10.67;;;9.20;99.90;;;;;;5033799;28;20230;-65
2020/12/20 09:12:36;;;;;;;16.20;10.43;;;9.20;99.90;;;;;;5034071;28;20584;-65
2020/12/20 09:15:13;;;;;;;15.00;10.60;;;9.20;99.90;;;;;;5034088;28;20699;-65
2020/12/20 09:17:44;;;;;;;13.17;10.53;;;9.30;99.90;;;;;;5034166;28;20526;-64
2020/12/20 09:20:13;;;;;;;15.10;10.53;;;9.40;99.90;;;;;;5033622;28;20684;-65
2020/12/20 09:22:55;;;;;;;15.53;9.43;;;9.40;99.90;;;;;;5053003;28;20261;-65
2020/12/20 09:25:41;;;;;;;15.00;10.30;;;9.50;99.90;;;;;;5053610;28;20210;-64
2020/12/20 09:28:19;;;;;;;11.80;9.40;;;9.70;99.90;;;;;;5053487;28;20185;-65
2020/12/20 09:30:45;;;;;;;14.43;9.30;;;9.80;99.90;;;;;;5033499;28;20194;-65
2020/12/20 09:33:37;;;;;;;12.17;9.37;;;9.90;99.90;;;;;;5035237;28;20246;-65
2020/12/20 09:36:04;;;;;;;14.40;10.13;;;10.00;99.90;;;;;;5031162;28;20187;-65
2020/12/20 09:38:48;;;;;;;14.37;9.27;;;10.10;99.90;;;;;;5034555;28;20219;-64
2020/12/20 09:41:18;;;;;;;10.57;8.70;;;10.20;99.90;;;;;;5053232;28;20198;-65
2020/12/20 09:43:46;;;;;;;10.90;9.17;;;10.30;99.90;;;;;;5053077;28;20179;-65
2020/12/20 09:46:24;;;;;;;9.23;8.00;;;10.40;99.90;;;;;;5053568;28;20747;-65
2020/12/20 09:48:50;;;;;;;11.63;8.90;;;10.50;99.90;;;;;;5053230;28;20167;-65
2020/12/20 09:51:17;;;;;;;12.27;7.83;;;10.60;99.90;;;;;;5052797;28;20197;-66
2020/12/20 09:53:43;;;;;;;11.87;8.00;;;10.70;99.90;;;;;;5053516;28;20185;-65
2020/12/20 09:56:09;;;;;;;10.10;7.60;;;10.80;99.90;;;;;;5052966;28;20183;-65
2020/12/20 09:58:34;;;;;;;11.73;8.67;;;10.80;99.90;;;;;;5053227;28;20546;-65
2020/12/20 10:01:00;;;;;;;10.53;7.40;;;10.80;99.90;;;;;;5052323;28;20208;-65
2020/12/20 10:03:27;;;;;;;9.27;7.57;;;10.80;99.90;;;;;;5053459;28;20178;-64
2020/12/20 10:05:56;;;;;;;10.27;7.10;;;10.80;99.90;;;;;;5051284;28;20642;-65
2020/12/20 10:08:22;;;;;;;9.73;7.47;;;10.80;99.90;;;;;;5053360;28;20174;-65
2020/12/20 10:10:58;;;;;;;9.07;7.10;;;10.80;99.90;;;;;;5052294;28;20350;-65
2020/12/20 10:13:24;;;;;;;10.17;6.93;;;10.80;99.90;;;;;;5052829;28;20228;-65
2020/12/20 10:15:49;;;;;;;9.93;7.07;;;10.80;99.90;;;;;;5052994;28;20167;-64
2020/12/20 10:18:15;;;;;;;10.30;7.57;;;10.80;99.90;;;;;;5053425;28;20236;-65
2020/12/20 10:20:41;;;;;;;9.20;7.53;;;10.90;99.90;;;;;;5052521;28;20285;-65
2020/12/20 10:23:07;;;;;;;11.30;6.60;;;10.90;99.90;;;;;;5052511;28;20265;-65
2020/12/20 10:25:33;;;;;;;9.97;6.33;;;10.90;99.90;;;;;;5052972;28;20206;-65
2020/12/20 10:27:59;;;;;;;11.40;6.00;;;11.00;99.90;;;;;;5052305;28;20242;-65
2020/12/20 10:30:25;;;;;;;10.07;6.70;;;11.00;99.90;;;;;;5052848;28;20194;-65
2020/12/20 10:32:52;;;;;;;9.33;6.53;;;11.00;99.90;;;;;;5051389;28;20187;-65
2020/12/20 10:35:19;;;;;;;9.50;6.17;;;11.10;99.90;;;;;;5052718;28;20174;-64
2020/12/20 10:37:45;;;;;;;10.23;6.83;;;11.00;99.90;;;;;;5051746;28;20668;-65
2020/12/20 10:40:11;;;;;;;11.43;5.83;;;11.10;99.90;;;;;;5052302;28;20688;-64
2020/12/20 10:42:37;;;;;;;9.37;5.87;;;11.20;99.90;;;;;;5052212;28;20250;-64
2020/12/20 10:45:03;;;;;;;9.70;6.17;;;11.20;99.90;;;;;;5052203;28;20285;-65
2020/12/20 10:47:29;;;;;;;7.33;6.07;;;11.20;99.90;;;;;;5052417;28;20171;-65
2020/12/20 10:49:55;;;;;;;10.60;5.90;;;11.10;99.90;;;;;;5051990;28;20195;-65
2020/12/20 10:52:21;;;;;;;8.00;5.90;;;11.10;99.90;;;;;;5052151;28;20190;-65
2020/12/20 10:54:47;;;;;;;8.87;5.20;;;11.20;99.90;;;;;;5052003;28;20224;-66
2020/12/20 10:57:12;;;;;;;11.30;6.50;;;11.20;99.90;;;;;;5051752;28;20190;-65
2020/12/20 10:59:38;;;;;;;12.57;6.50;;;11.20;99.90;;;;;;5052120;28;20229;-65
2020/12/20 11:02:05;;;;;;;10.83;6.47;;;11.30;99.90;;;;;;5051460;28;20663;-65
2020/12/20 11:04:30;;;;;;;8.23;5.83;;;11.30;99.90;;;;;;5052114;28;20225;-65
2020/12/20 11:06:56;;;;;;;10.77;6.60;;;11.30;99.90;;;;;;5051764;28;20175;-65
2020/12/20 11:11:50;;;;;;;11.10;6.13;;;11.30;99.90;;;;;;5031660;28;20223;-64
2020/12/20 11:14:16;;;;;;;7.53;5.30;;;11.30;99.90;;;;;;5030755;28;20199;-65
2020/12/20 11:16:42;;;;;;;7.87;6.07;;;11.30;99.90;;;;;;5042755;28;20221;-61
2020/12/20 11:19:07;;;;;;;9.73;5.73;;;11.40;99.90;;;;;;5043230;28;20175;-64
2020/12/20 11:21:33;;;;;;;7.53;5.50;;;11.40;99.90;;;;;;5031950;28;20210;-64
2020/12/20 11:23:59;;;;;;;9.87;7.23;;;11.40;99.90;;;;;;5024972;28;20183;-63
2020/12/20 11:26:25;;;;;;;11.23;6.40;;;11.40;99.90;;;;;;5010699;28;20716;-65
2020/12/20 11:28:53;;;;;;;11.20;6.20;;;11.40;99.90;;;;;;5014677;28;20611;-64
2020/12/20 11:31:21;;;;;;;9.20;6.10;;;11.40;99.90;;;;;;5031489;28;20183;-65
2020/12/20 11:33:47;;;;;;;10.63;6.07;;;11.50;99.90;;;;;;5026215;28;20556;-64
2020/12/20 11:36:18;;;;;;;7.70;5.90;;;11.50;99.90;;;;;;5012173;28;20654;-64
2020/12/20 11:38:45;;;;;;;7.90;5.50;;;11.50;99.90;;;;;;5023728;28;20186;-65
2020/12/20 11:41:11;;;;;;;7.80;4.90;;;11.50;99.90;;;;;;5031499;28;20253;-64
2020/12/20 11:43:37;;;;;;;8.40;5.40;;;11.50;99.90;;;;;;5020911;28;20573;-63
2020/12/20 11:46:03;;;;;;;8.40;5.33;;;11.50;99.90;;;;;;5012069;28;20571;-64
2020/12/20 11:48:29;;;;;;;9.77;6.17;;;11.60;99.90;;;;;;5030900;28;20233;-64
2020/12/20 11:50:56;;;;;;;9.67;5.43;;;11.50;99.90;;;;;;5031087;28;20625;-64
2020/12/20 11:53:21;;;;;;;8.03;5.77;;;11.60;99.90;;;;;;5014007;28;20207;-64
2020/12/20 11:55:47;;;;;;;7.80;5.30;;;11.60;99.90;;;;;;5010687;28;20206;-64
2020/12/20 11:58:13;;;;;;;10.73;5.77;;;11.70;99.90;;;;;;5025782;28;20187;-64
2020/12/20 12:00:47;;;;;;;13.67;7.60;;;11.70;99.90;;;;;;5031332;28;20192;-64
2020/12/20 12:03:13;;;;;;;13.30;5.80;;;11.70;99.90;;;;;;5016227;28;20175;-63
2020/12/20 12:05:41;;;;;;;11.17;5.97;;;11.80;99.90;;;;;;5023876;28;20203;-65
2020/12/20 12:08:07;;;;;;;14.33;8.10;;;11.80;99.90;;;;;;5031572;28;20518;-61
2020/12/20 12:10:34;;;;;;;12.47;6.93;;;11.80;99.90;;;;;;5019812;28;20238;-64
2020/12/20 12:13:01;;;;;;;12.70;7.47;;;12.00;99.90;;;;;;5011344;28;20792;-64
2020/12/20 12:15:28;;;;;;;12.63;7.27;;;12.10;99.90;;;;;;5021158;28;20175;-62
2020/12/20 12:17:54;;;;;;;10.80;6.97;;;12.20;99.90;;;;;;5031108;28;20547;-65
2020/12/20 12:20:20;;;;;;;13.83;7.83;;;12.30;99.90;;;;;;5030980;28;20207;-64
2020/12/20 12:22:47;;;;;;;10.23;6.73;;;12.40;99.90;;;;;;5031356;28;20273;-64
2020/12/20 12:25:15;;;;;;;10.40;7.00;;;12.50;99.90;;;;;;5012028;28;20350;-64
2020/12/20 12:27:41;;;;;;;13.60;7.33;;;12.50;99.90;;;;;;5012217;28;20200;-64
2020/12/20 12:30:08;;;;;;;8.73;6.20;;;12.60;99.90;;;;;;5032316;28;20269;-64
2020/12/20 12:32:35;;;;;;;11.93;6.50;;;12.60;99.90;;;;;;5035195;28;20213;-64
2020/12/20 12:35:02;;;;;;;13.20;6.53;;;12.70;99.90;;;;;;5017149;28;20271;-64
2020/12/20 12:37:27;;;;;;;15.37;6.50;;;12.60;99.90;;;;;;5015237;28;20179;-62
2020/12/20 12:39:53;;;;;;;11.60;6.33;;;12.60;99.90;;;;;;5029048;28;20614;-63
2020/12/20 12:42:19;;;;;;;13.20;6.53;;;12.50;99.90;;;;;;5034485;28;20266;-63
2020/12/20 12:44:44;;;;;;;8.30;6.50;;;12.40;99.90;;;;;;5015217;28;20542;-66
2020/12/20 12:47:11;;;;;;;10.07;6.50;;;12.30;99.90;;;;;;5014854;28;20223;-63
2020/12/20 12:49:37;;;;;;;9.53;6.87;;;12.30;99.90;;;;;;5032762;28;20702;-63
2020/12/20 12:52:03;;;;;;;10.30;5.60;;;12.20;99.90;;;;;;5034367;28;20167;-64